Time,TemperatureF,DewpointF,PressureIn,WindDirection,WindDirectionDegrees,WindSpeedMPH,WindSpeedGustMPH,Humidity,HourlyPrecipIn,Conditions,Clouds,dailyrainin,SoftwareType,DateUTC
2013-08-21 00:04:00,75.7,74.8,30.14,North,5,0.0,3.0,97,0.00,,,0.00,Wunderground v.1.15,2013-08-21 04:04:00,
2013-08-21 00:14:00,75.3,74.1,30.14,North,5,1.0,2.0,96,0.00,,,0.00,Wunderground v.1.15,2013-08-21 04:14:00,
2013-08-21 00:19:00,75.2,74.3,30.14,North,5,1.0,1.0,97,0.00,,,0.00,Wunderground v.1.15,2013-08-21 04:19:00,
2013-08-21 00:24:00,75.1,74.2,30.14,North,5,1.0,1.0,97,0.00,,,0.00,Wunderground v.1.15,2013-08-21 04:24:00,
2013-08-21 00:29:00,75.0,74.1,30.14,North,5,1.0,1.0,97,0.00,,,0.00,Wunderground v.1.15,2013-08-21 04:29:00,
2013-08-21 00:39:00,74.8,73.6,30.14,North,5,1.0,1.0,96,0.00,,,0.00,Wunderground v.1.15,2013-08-21 04:39:00,
2013-08-21 00:44:00,74.7,73.5,30.14,North,5,1.0,1.0,96,0.00,,,0.00,Wunderground v.1.15,2013-08-21 04:44:00,
2013-08-21 00:49:00,74.7,73.5,30.14,North,5,0.0,0.0,96,0.00,,,0.00,Wunderground v.1.15,2013-08-21 04:49:00,
2013-08-21 00:59:00,74.6,73.7,30.14,North,5,0.0,0.0,97,0.00,,,0.00,Wunderground v.1.15,2013-08-21 04:59:00,
2013-08-21 01:09:00,74.6,73.7,30.14,North,5,0.0,0.0,97,0.00,,,0.00,Wunderground v.1.15,2013-08-21 05:09:00,
2013-08-21 01:19:00,74.5,73.6,30.14,North,5,0.0,0.0,97,0.00,,,0.00,Wunderground v.1.15,2013-08-21 05:19:00,
2013-08-21 01:29:00,74.5,73.6,30.14,North,5,0.0,0.0,97,0.00,,,0.00,Wunderground v.1.15,2013-08-21 05:29:00,
2013-08-21 01:34:00,74.4,73.5,30.13,North,5,0.0,0.0,97,0.00,,,0.00,Wunderground v.1.15,2013-08-21 05:34:00,
2013-08-21 01:44:00,74.3,73.4,30.13,East,90,1.0,1.0,97,0.00,,,0.00,Wunderground v.1.15,2013-08-21 05:44:00,
2013-08-21 01:49:00,74.3,73.1,30.13,East,90,1.0,1.0,96,0.00,,,0.00,Wunderground v.1.15,2013-08-21 05:49:00,
2013-08-21 01:54:00,74.2,73.0,30.13,East,90,0.0,1.0,96,0.00,,,0.00,Wunderground v.1.15,2013-08-21 05:54:00,
2013-08-21 02:04:00,74.2,73.0,30.13,East,90,0.0,0.0,96,0.00,,,0.00,Wunderground v.1.15,2013-08-21 06:04:00,
2013-08-21 02:09:00,74.2,73.0,30.13,East,90,0.0,0.0,96,0.00,,,0.00,Wunderground v.1.15,2013-08-21 06:09:00,
2013-08-21 02:19:00,74.1,72.9,30.12,East,90,0.0,0.0,96,0.00,,,0.00,Wunderground v.1.15,2013-08-21 06:19:00,
2013-08-21 02:29:00,73.8,72.6,30.12,East,90,0.0,0.0,96,0.00,,,0.00,Wunderground v.1.15,2013-08-21 06:29:00,
2013-08-21 02:34:00,73.6,72.4,30.12,East,90,0.0,0.0,96,0.00,,,0.00,Wunderground v.1.15,2013-08-21 06:34:00,
2013-08-21 02:44:00,73.5,72.3,30.12,East,90,0.0,0.0,96,0.00,,,0.00,Wunderground v.1.15,2013-08-21 06:44:00,
2013-08-21 02:54:00,73.6,72.4,30.12,East,92,0.0,0.0,96,0.00,,,0.00,Wunderground v.1.15,2013-08-21 06:54:00,
2013-08-21 03:04:00,73.6,72.4,30.12,East,92,0.0,0.0,96,0.00,,,0.00,Wunderground v.1.15,2013-08-21 07:04:00,
2013-08-21 03:14:00,73.5,72.3,30.12,East,92,0.0,0.0,96,0.00,,,0.00,Wunderground v.1.15,2013-08-21 07:14:00,
2013-08-21 03:24:00,73.5,72.3,30.12,East,92,0.0,0.0,96,0.00,,,0.00,Wunderground v.1.15,2013-08-21 07:24:00,
2013-08-21 03:34:00,73.5,72.3,30.12,East,93,0.0,0.0,96,0.00,,,0.00,Wunderground v.1.15,2013-08-21 07:34:00,
2013-08-21 03:44:00,73.3,72.1,30.12,East,93,0.0,0.0,96,0.00,,,0.00,Wunderground v.1.15,2013-08-21 07:44:00,
2013-08-21 03:49:00,73.3,72.1,30.12,East,93,0.0,0.0,96,0.00,,,0.00,Wunderground v.1.15,2013-08-21 07:49:00,
2013-08-21 03:59:00,73.3,72.1,30.12,East,93,0.0,0.0,96,0.00,,,0.00,Wunderground v.1.15,2013-08-21 07:59:00,
2013-08-21 04:09:00,73.1,71.9,30.12,East,93,0.0,0.0,96,0.00,,,0.00,Wunderground v.1.15,2013-08-21 08:09:00,
2013-08-21 04:14:00,73.0,71.8,30.12,East,93,0.0,0.0,96,0.00,,,0.00,Wunderground v.1.15,2013-08-21 08:14:00,
2013-08-21 04:24:00,72.8,71.6,30.12,East,93,0.0,0.0,96,0.00,,,0.00,Wunderground v.1.15,2013-08-21 08:24:00,
2013-08-21 04:29:00,72.7,71.5,30.12,East,93,0.0,0.0,96,0.00,,,0.00,Wunderground v.1.15,2013-08-21 08:29:00,
2013-08-21 04:39:00,72.8,71.9,30.12,East,93,0.0,0.0,97,0.00,,,0.00,Wunderground v.1.15,2013-08-21 08:39:00,
2013-08-21 04:49:00,72.6,71.4,30.11,East,93,0.0,0.0,96,0.00,,,0.00,Wunderground v.1.15,2013-08-21 08:49:00,
2013-08-21 04:59:00,72.6,71.7,30.11,East,93,0.0,0.0,97,0.00,,,0.00,Wunderground v.1.15,2013-08-21 08:59:00,
2013-08-21 05:09:00,72.5,71.6,30.11,East,93,0.0,0.0,97,0.00,,,0.00,Wunderground v.1.15,2013-08-21 09:09:00,
2013-08-21 05:19:00,72.4,71.5,30.11,East,93,0.0,0.0,97,0.00,,,0.00,Wunderground v.1.15,2013-08-21 09:19:00,
2013-08-21 05:29:00,72.4,71.5,30.12,East,93,0.0,0.0,97,0.00,,,0.00,Wunderground v.1.15,2013-08-21 09:29:00,
2013-08-21 05:39:00,72.3,71.4,30.12,East,93,0.0,0.0,97,0.00,,,0.00,Wunderground v.1.15,2013-08-21 09:39:00,
2013-08-21 05:49:00,72.3,71.4,30.12,East,93,0.0,0.0,97,0.00,,,0.00,Wunderground v.1.15,2013-08-21 09:49:00,
2013-08-21 05:59:00,72.2,71.3,30.12,East,93,0.0,0.0,97,0.00,,,0.00,Wunderground v.1.15,2013-08-21 09:59:00,
2013-08-21 06:09:00,72.2,71.3,30.13,East,93,0.0,0.0,97,0.00,,,0.00,Wunderground v.1.15,2013-08-21 10:09:00,
2013-08-21 06:19:00,72.3,71.4,30.13,East,93,0.0,0.0,97,0.00,,,0.00,Wunderground v.1.15,2013-08-21 10:19:00,
2013-08-21 06:29:00,72.2,71.3,30.14,East,93,0.0,0.0,97,0.00,,,0.00,Wunderground v.1.15,2013-08-21 10:29:00,
2013-08-21 06:39:00,72.2,71.3,30.14,East,93,0.0,0.0,97,0.00,,,0.00,Wunderground v.1.15,2013-08-21 10:39:00,
2013-08-21 06:49:00,72.3,71.4,30.15,East,93,0.0,0.0,97,0.00,,,0.00,Wunderground v.1.15,2013-08-21 10:49:00,
2013-08-21 06:59:00,72.4,71.5,30.15,East,93,0.0,0.0,97,0.00,,,0.00,Wunderground v.1.15,2013-08-21 10:59:00,
2013-08-21 07:09:00,72.5,71.6,30.15,East,93,0.0,0.0,97,0.00,,,0.00,Wunderground v.1.15,2013-08-21 11:09:00,
2013-08-21 07:19:00,72.8,71.9,30.15,East,93,0.0,0.0,97,0.00,,,0.00,Wunderground v.1.15,2013-08-21 11:19:00,
2013-08-21 07:29:00,73.0,72.1,30.15,East,93,0.0,0.0,97,0.00,,,0.00,Wunderground v.1.15,2013-08-21 11:29:00,
2013-08-21 07:34:00,73.3,72.4,30.15,East,93,0.0,0.0,97,0.00,,,0.00,Wunderground v.1.15,2013-08-21 11:34:00,
2013-08-21 07:44:00,74.1,73.2,30.15,East,93,0.0,0.0,97,0.00,,,0.00,Wunderground v.1.15,2013-08-21 11:44:00,
2013-08-21 07:54:00,75.0,73.8,30.15,East,93,0.0,0.0,96,0.00,,,0.00,Wunderground v.1.15,2013-08-21 11:54:00,
2013-08-21 08:04:00,75.9,74.7,30.15,East,93,0.0,0.0,96,0.00,,,0.00,Wunderground v.1.15,2013-08-21 12:04:00,
2013-08-21 08:14:00,76.7,75.5,30.16,East,93,0.0,0.0,96,0.00,,,0.00,Wunderground v.1.15,2013-08-21 12:14:00,
2013-08-21 08:24:00,77.7,76.2,30.16,East,93,0.0,0.0,95,0.00,,,0.00,Wunderground v.1.15,2013-08-21 12:24:00,
2013-08-21 08:34:00,78.4,76.5,30.16,East,93,0.0,0.0,94,0.00,,,0.00,Wunderground v.1.15,2013-08-21 12:34:00,
2013-08-21 08:44:00,79.3,77.1,30.16,East,96,0.0,0.0,93,0.00,,,0.00,Wunderground v.1.15,2013-08-21 12:44:00,
2013-08-21 08:49:00,79.8,77.3,30.16,ESE,110,0.0,0.0,92,0.00,,,0.00,Wunderground v.1.15,2013-08-21 12:49:00,
2013-08-21 08:54:00,80.1,77.2,30.16,ESE,110,0.0,0.0,91,0.00,,,0.00,Wunderground v.1.15,2013-08-21 12:54:00,
2013-08-21 09:04:00,80.7,77.5,30.16,SE,124,0.0,1.0,90,0.00,,,0.00,Wunderground v.1.15,2013-08-21 13:04:00,
2013-08-21 09:09:00,81.1,77.5,30.16,SE,124,1.0,1.0,89,0.00,,,0.00,Wunderground v.1.15,2013-08-21 13:09:00,
2013-08-21 09:19:00,81.6,77.4,30.16,ESE,105,2.0,2.0,87,0.00,,,0.00,Wunderground v.1.15,2013-08-21 13:19:00,
2013-08-21 09:29:00,82.1,77.1,30.17,East,101,1.0,1.0,85,0.00,,,0.00,Wunderground v.1.15,2013-08-21 13:29:00,
2013-08-21 09:39:00,82.3,77.0,30.17,South,183,1.0,1.0,84,0.00,,,0.00,Wunderground v.1.15,2013-08-21 13:39:00,
2013-08-21 09:49:00,83.1,76.7,30.17,ESE,109,1.0,2.0,81,0.00,,,0.00,Wunderground v.1.15,2013-08-21 13:49:00,
2013-08-21 09:59:00,82.9,75.7,30.17,SSW,200,2.0,2.0,79,0.00,,,0.00,Wunderground v.1.15,2013-08-21 13:59:00,
2013-08-21 10:09:00,82.7,75.9,30.17,SW,217,2.0,2.0,80,0.00,,,0.00,Wunderground v.1.15,2013-08-21 14:09:00,
2013-08-21 10:19:00,84.2,75.8,30.18,SSW,208,1.0,1.0,76,0.00,,,0.00,Wunderground v.1.15,2013-08-21 14:19:00,
2013-08-21 10:24:00,84.4,75.2,30.18,SSW,200,0.0,1.0,74,0.00,,,0.00,Wunderground v.1.15,2013-08-21 14:24:00,
2013-08-21 10:34:00,84.3,76.3,30.18,SSW,192,0.0,2.0,77,0.00,,,0.00,Wunderground v.1.15,2013-08-21 14:34:00,
2013-08-21 10:44:00,85.4,77.4,30.18,South,180,1.0,1.0,77,0.00,,,0.00,Wunderground v.1.15,2013-08-21 14:44:00,
2013-08-21 10:54:00,85.4,76.2,30.18,WNW,290,1.0,2.0,74,0.00,,,0.00,Wunderground v.1.15,2013-08-21 14:54:00,
2013-08-21 11:04:00,84.2,75.8,30.18,West,261,2.0,2.0,76,0.00,,,0.00,Wunderground v.1.15,2013-08-21 15:04:00,
2013-08-21 11:14:00,85.7,76.5,30.18,West,263,1.0,2.0,74,0.00,,,0.00,Wunderground v.1.15,2013-08-21 15:14:00,
2013-08-21 11:19:00,85.0,75.8,30.18,North,5,0.0,0.0,74,0.00,,,0.00,Wunderground v.1.15,2013-08-21 15:19:00,
2013-08-21 11:29:00,84.5,76.1,30.17,North,5,0.0,0.0,76,0.00,,,0.00,Wunderground v.1.15,2013-08-21 15:29:00,
2013-08-21 11:39:00,84.5,76.5,30.18,SSE,159,1.0,2.0,77,0.00,,,0.00,Wunderground v.1.15,2013-08-21 15:39:00,
2013-08-21 11:49:00,84.4,76.0,30.17,SSE,160,3.0,3.0,76,0.00,,,0.00,Wunderground v.1.15,2013-08-21 15:49:00,
2013-08-21 11:54:00,84.6,76.6,30.17,SE,138,3.0,3.0,77,0.00,,,0.00,Wunderground v.1.15,2013-08-21 15:54:00,
2013-08-21 12:04:00,85.2,76.0,30.17,South,171,2.0,3.0,74,0.00,,,0.00,Wunderground v.1.15,2013-08-21 16:04:00,
2013-08-21 12:14:00,85.4,76.2,30.17,SE,130,2.0,3.0,74,0.00,,,0.00,Wunderground v.1.15,2013-08-21 16:14:00,
2013-08-21 12:19:00,85.1,76.3,30.17,SSW,213,3.0,7.0,75,0.00,,,0.00,Wunderground v.1.15,2013-08-21 16:19:00,
2013-08-21 12:29:00,85.0,75.8,30.16,South,184,6.0,6.0,74,0.00,,,0.00,Wunderground v.1.15,2013-08-21 16:29:00,
2013-08-21 12:39:00,85.9,76.6,30.16,South,190,4.0,4.0,74,0.00,,,0.00,Wunderground v.1.15,2013-08-21 16:39:00,
2013-08-21 12:49:00,84.9,76.1,30.16,South,173,6.0,6.0,75,0.00,,,0.00,Wunderground v.1.15,2013-08-21 16:49:00,
2013-08-21 12:59:00,86.6,76.1,30.15,South,182,4.0,4.0,71,0.00,,,0.00,Wunderground v.1.15,2013-08-21 16:59:00,
2013-08-21 13:09:00,87.4,76.0,30.16,SSE,155,3.0,6.0,69,0.00,,,0.00,Wunderground v.1.15,2013-08-21 17:09:00,
2013-08-21 13:14:00,87.0,75.2,30.16,SSE,150,3.0,6.0,68,0.00,,,0.00,Wunderground v.1.15,2013-08-21 17:14:00,
2013-08-21 13:24:00,86.3,77.0,30.15,ESE,120,3.0,5.0,74,0.00,,,0.00,Wunderground v.1.15,2013-08-21 17:24:00,
2013-08-21 13:29:00,85.7,76.9,30.15,SE,140,4.0,4.0,75,0.00,,,0.00,Wunderground v.1.15,2013-08-21 17:29:00,
2013-08-21 13:39:00,83.5,75.1,30.15,East,99,4.0,6.0,76,0.00,,,0.00,Wunderground v.1.15,2013-08-21 17:39:00,
2013-08-21 13:44:00,82.5,72.1,30.15,East,98,6.0,6.0,71,0.00,,,0.00,Wunderground v.1.15,2013-08-21 17:44:00,
2013-08-21 13:54:00,81.3,73.8,30.15,ESE,103,5.0,7.0,78,0.00,,,0.00,Wunderground v.1.15,2013-08-21 17:54:00,
2013-08-21 14:04:00,79.8,75.2,30.14,ENE,73,7.0,10.0,86,0.00,,,0.00,Wunderground v.1.15,2013-08-21 18:04:00,
2013-08-21 14:14:00,81.0,76.1,30.14,ENE,71,5.0,8.0,85,0.00,,,0.00,Wunderground v.1.15,2013-08-21 18:14:00,
2013-08-21 14:24:00,80.9,76.3,30.13,ENE,78,4.0,5.0,86,0.00,,,0.00,Wunderground v.1.15,2013-08-21 18:24:00,
2013-08-21 14:29:00,81.8,76.8,30.13,ENE,69,4.0,4.0,85,0.00,,,0.00,Wunderground v.1.15,2013-08-21 18:29:00,
2013-08-21 14:39:00,82.5,77.2,30.13,ENE,76,1.0,2.0,84,0.00,,,0.00,Wunderground v.1.15,2013-08-21 18:39:00,
2013-08-21 14:49:00,83.9,76.7,30.12,SE,145,2.0,7.0,79,0.00,,,0.00,Wunderground v.1.15,2013-08-21 18:49:00,
2013-08-21 14:59:00,86.9,75.9,30.12,SE,144,5.0,10.0,70,0.00,,,0.00,Wunderground v.1.15,2013-08-21 18:59:00,
2013-08-21 15:09:00,87.4,76.0,30.11,South,172,5.0,5.0,69,0.00,,,0.00,Wunderground v.1.15,2013-08-21 19:09:00,
2013-08-21 15:14:00,87.2,76.2,30.11,SSW,196,5.0,7.0,70,0.00,,,0.00,Wunderground v.1.15,2013-08-21 19:14:00,
2013-08-21 15:24:00,87.2,75.3,30.11,SE,141,5.0,6.0,68,0.00,,,0.00,Wunderground v.1.15,2013-08-21 19:24:00,
2013-08-21 15:34:00,87.9,75.6,30.10,SSE,147,5.0,7.0,67,0.00,,,0.00,Wunderground v.1.15,2013-08-21 19:34:00,
2013-08-21 15:44:00,87.7,76.3,30.10,SSW,209,5.0,7.0,69,0.00,,,0.00,Wunderground v.1.15,2013-08-21 19:44:00,
2013-08-21 15:54:00,87.2,76.6,30.10,SE,135,6.0,9.0,71,0.00,,,0.00,Wunderground v.1.15,2013-08-21 19:54:00,
2013-08-21 16:04:00,86.9,75.9,30.10,SSE,163,6.0,6.0,70,0.00,,,0.00,Wunderground v.1.15,2013-08-21 20:04:00,
2013-08-21 16:14:00,86.6,75.6,30.10,SSW,208,6.0,11.0,70,0.00,,,0.00,Wunderground v.1.15,2013-08-21 20:14:00,
2013-08-21 16:19:00,86.8,76.3,30.09,SSW,205,6.0,6.0,71,0.00,,,0.00,Wunderground v.1.15,2013-08-21 20:19:00,
2013-08-21 16:29:00,86.7,75.7,30.10,SSW,193,5.0,6.0,70,0.00,,,0.00,Wunderground v.1.15,2013-08-21 20:29:00,
2013-08-21 16:34:00,86.9,75.9,30.10,South,180,6.0,6.0,70,0.00,,,0.00,Wunderground v.1.15,2013-08-21 20:34:00,
2013-08-21 16:45:00,86.8,75.8,30.10,SSE,167,5.0,5.0,70,0.00,,,0.00,Wunderground v.1.15,2013-08-21 20:45:00,
2013-08-21 16:59:00,87.1,74.8,30.10,SW,223,5.0,7.0,67,0.00,,,0.00,Wunderground v.1.15,2013-08-21 20:59:00,
2013-08-21 17:09:00,87.1,76.1,30.10,South,187,6.0,9.0,70,0.00,,,0.00,Wunderground v.1.15,2013-08-21 21:09:00,
2013-08-21 17:19:00,86.7,74.9,30.10,SSW,205,7.0,8.0,68,0.00,,,0.00,Wunderground v.1.15,2013-08-21 21:19:00,
2013-08-21 17:29:00,86.5,74.2,30.10,SSW,209,7.0,7.0,67,0.00,,,0.00,Wunderground v.1.15,2013-08-21 21:29:00,
2013-08-21 17:40:00,85.4,74.5,30.09,SSE,155,4.0,4.0,70,0.00,,,0.00,Wunderground v.1.15,2013-08-21 21:40:00,
2013-08-21 17:50:00,84.6,73.7,30.09,SSW,202,5.0,5.0,70,0.00,,,0.00,Wunderground v.1.15,2013-08-21 21:50:00,
2013-08-21 18:04:00,83.9,74.3,30.09,South,191,4.0,4.0,73,0.00,,,0.00,Wunderground v.1.15,2013-08-21 22:04:00,
2013-08-21 18:14:00,83.6,74.4,30.09,SSW,198,4.0,5.0,74,0.00,,,0.00,Wunderground v.1.15,2013-08-21 22:14:00,
2013-08-21 18:24:00,83.2,74.0,30.09,SW,216,5.0,7.0,74,0.00,,,0.00,Wunderground v.1.15,2013-08-21 22:24:00,
2013-08-21 18:34:00,83.1,74.7,30.08,SSW,193,5.0,5.0,76,0.00,,,0.00,Wunderground v.1.15,2013-08-21 22:34:00,
2013-08-21 18:45:00,82.8,74.8,30.07,South,175,2.0,4.0,77,0.00,,,0.00,Wunderground v.1.15,2013-08-21 22:45:00,
2013-08-21 18:59:00,82.5,74.9,30.07,South,180,3.0,4.0,78,0.00,,,0.00,Wunderground v.1.15,2013-08-21 22:59:00,
2013-08-21 19:09:00,82.2,75.0,30.08,SSW,194,4.0,4.0,79,0.00,,,0.00,Wunderground v.1.15,2013-08-21 23:09:00,
2013-08-21 19:19:00,82.2,75.4,30.08,SSW,205,4.0,4.0,80,0.00,,,0.00,Wunderground v.1.15,2013-08-21 23:19:00,
2013-08-21 19:29:00,81.9,75.5,30.08,South,182,3.0,3.0,81,0.00,,,0.00,Wunderground v.1.15,2013-08-21 23:29:00,
2013-08-21 19:39:00,81.6,75.6,30.08,SSE,155,2.0,2.0,82,0.00,,,0.00,Wunderground v.1.15,2013-08-21 23:39:00,
2013-08-21 19:50:00,81.3,75.6,30.09,South,172,1.0,3.0,83,0.00,,,0.00,Wunderground v.1.15,2013-08-21 23:50:00,
2013-08-21 20:04:00,81.1,75.8,30.09,South,182,2.0,2.0,84,0.00,,,0.00,Wunderground v.1.15,2013-08-22 00:04:00,
2013-08-21 20:14:00,80.9,75.6,30.09,SSW,200,1.0,1.0,84,0.00,,,0.00,Wunderground v.1.15,2013-08-22 00:14:00,
2013-08-21 20:24:00,80.8,75.9,30.09,SW,221,2.0,2.0,85,0.00,,,0.00,Wunderground v.1.15,2013-08-22 00:24:00,
2013-08-21 20:34:00,80.5,75.6,30.10,SW,221,0.0,0.0,85,0.00,,,0.00,Wunderground v.1.15,2013-08-22 00:34:00,
2013-08-21 20:44:00,80.5,75.6,30.10,South,189,0.0,1.0,85,0.00,,,0.00,Wunderground v.1.15,2013-08-22 00:44:00,
2013-08-21 20:55:00,80.2,75.6,30.10,South,188,0.0,0.0,86,0.00,,,0.00,Wunderground v.1.15,2013-08-22 00:55:00,
2013-08-21 21:05:00,80.0,75.4,30.11,South,188,0.0,0.0,86,0.00,,,0.00,Wunderground v.1.15,2013-08-22 01:05:00,
2013-08-21 21:19:00,79.9,75.7,30.11,South,188,0.0,0.0,87,0.00,,,0.00,Wunderground v.1.15,2013-08-22 01:19:00,
2013-08-21 21:29:00,79.0,75.1,30.12,ESE,115,0.0,1.0,88,0.00,,,0.00,Wunderground v.1.15,2013-08-22 01:29:00,
2013-08-21 21:39:00,78.0,75.2,30.12,ESE,115,0.0,0.0,91,0.00,,,0.00,Wunderground v.1.15,2013-08-22 01:39:00,
2013-08-21 21:49:00,77.6,75.1,30.12,ESE,115,0.0,2.0,92,0.00,,,0.00,Wunderground v.1.15,2013-08-22 01:49:00,
2013-08-21 21:59:00,77.2,74.7,30.12,NE,56,2.0,2.0,92,0.00,,,0.00,Wunderground v.1.15,2013-08-22 01:59:00,
2013-08-21 22:09:00,76.9,74.7,30.13,ENE,70,1.0,2.0,93,0.00,,,0.00,Wunderground v.1.15,2013-08-22 02:09:00,
2013-08-21 22:20:00,76.8,74.6,30.13,NNE,31,2.0,2.0,93,0.00,,,0.00,Wunderground v.1.15,2013-08-22 02:20:00,
2013-08-21 22:30:00,76.9,74.7,30.13,NE,35,3.0,3.0,93,0.00,,,0.00,Wunderground v.1.15,2013-08-22 02:30:00,
2013-08-21 22:44:00,76.6,74.4,30.13,NE,44,1.0,1.0,93,0.00,,,0.00,Wunderground v.1.15,2013-08-22 02:44:00,
2013-08-21 22:54:00,76.2,74.0,30.13,NE,44,0.0,0.0,93,0.00,,,0.00,Wunderground v.1.15,2013-08-22 02:54:00,
2013-08-21 23:04:00,76.0,73.8,30.13,NE,44,0.0,0.0,93,0.00,,,0.00,Wunderground v.1.15,2013-08-22 03:04:00,
2013-08-21 23:14:00,75.8,73.9,30.13,NE,44,0.0,0.0,94,0.00,,,0.00,Wunderground v.1.15,2013-08-22 03:14:00,
2013-08-21 23:24:00,75.7,73.8,30.13,NE,44,0.0,0.0,94,0.00,,,0.00,Wunderground v.1.15,2013-08-22 03:24:00,
2013-08-21 23:35:00,75.7,73.8,30.13,NE,44,0.0,0.0,94,0.00,,,0.00,Wunderground v.1.15,2013-08-22 03:35:00,
2013-08-21 23:45:00,75.6,73.8,30.12,NE,44,0.0,0.0,94,0.00,,,0.00,Wunderground v.1.15,2013-08-22 03:45:00,
2013-08-21 23:55:00,75.5,73.7,30.12,NE,44,0.0,0.0,94,0.00,,,0.00,Wunderground v.1.15,2013-08-22 03:55:00,